createdAt,value
2022-10-20T00:04:13.779Z,89.78
2022-10-20T00:09:22.135Z,89.70
2022-10-20T00:14:27.829Z,89.62
2022-10-20T00:19:32.762Z,89.57
2022-10-20T00:24:36.693Z,89.63
2022-10-20T00:29:40.350Z,89.87
2022-10-20T00:34:43.576Z,90.41
2022-10-20T00:39:46.830Z,91.23
2022-10-20T00:44:57.864Z,91.18
2022-10-20T00:50:22.961Z,91.11
2022-10-20T00:55:29.483Z,91.15
2022-10-20T01:06:42.544Z,91.13
2022-10-20T01:12:01.444Z,91.18
2022-10-20T01:17:26.643Z,91.20
2022-10-20T01:22:53.030Z,91.18
2022-10-20T01:28:02.124Z,91.19
2022-10-20T01:38:41.395Z,91.25
2022-10-20T01:43:46.718Z,91.24
2022-10-20T01:48:50.686Z,91.08
2022-10-20T01:53:53.820Z,90.99
2022-10-20T01:59:10.866Z,91.20
2022-10-20T02:04:14.800Z,91.16
2022-10-20T02:09:43.337Z,91.19
2022-10-20T02:15:05.924Z,91.13
2022-10-20T02:20:10.842Z,91.14
2022-10-20T02:25:14.697Z,91.20
2022-10-20T02:30:18.931Z,91.29
2022-10-20T02:35:31.217Z,91.43
2022-10-20T02:40:34.393Z,91.43
2022-10-20T02:45:37.686Z,91.39
2022-10-20T02:50:40.796Z,91.37
2022-10-20T02:55:44.075Z,91.48
2022-10-20T03:00:50.077Z,91.53
2022-10-20T03:05:53.289Z,91.55
2022-10-20T03:10:56.440Z,91.51
2022-10-20T03:15:59.905Z,91.56
2022-10-20T03:21:05.436Z,91.58
2022-10-20T03:26:10.895Z,91.74
2022-10-20T03:31:14.083Z,91.66
2022-10-20T03:36:17.325Z,91.37
2022-10-20T03:41:20.532Z,91.11
2022-10-20T03:46:23.724Z,91.07
2022-10-20T03:51:27.172Z,90.99
2022-10-20T03:56:37.525Z,91.05
2022-10-20T04:01:47.155Z,91.09
2022-10-20T04:06:50.619Z,91.27
2022-10-20T04:11:53.605Z,91.37
2022-10-20T04:16:56.816Z,91.26
2022-10-20T04:22:00.031Z,91.26
2022-10-20T04:27:05.543Z,91.11
2022-10-20T04:32:11.027Z,90.83
2022-10-20T04:37:14.185Z,90.81
2022-10-20T04:42:20.276Z,90.90
2022-10-20T04:47:23.436Z,91.05
2022-10-20T04:52:26.604Z,91.29
2022-10-20T04:57:29.775Z,91.31
2022-10-20T05:02:33.012Z,91.38
2022-10-20T05:07:36.614Z,91.39
2022-10-20T05:12:40.083Z,91.36
2022-10-20T05:17:43.408Z,91.64
2022-10-20T05:22:46.589Z,91.90
2022-10-20T05:27:49.749Z,92.11
2022-10-20T05:32:53.106Z,92.16
2022-10-20T05:37:57.129Z,92.14
2022-10-20T05:43:00.633Z,92.28
2022-10-20T05:48:03.747Z,92.42
2022-10-20T05:53:06.933Z,92.65
2022-10-20T05:58:10.101Z,92.70
2022-10-20T06:03:16.146Z,92.76
2022-10-20T06:08:22.411Z,92.84
2022-10-20T06:13:25.698Z,92.93
2022-10-20T06:18:28.990Z,92.96
2022-10-20T06:23:32.538Z,92.89
2022-10-20T06:28:38.531Z,92.94
2022-10-20T06:33:42.048Z,93.13
2022-10-20T06:38:45.658Z,93.26
2022-10-20T06:43:49.109Z,93.32
2022-10-20T06:48:55.015Z,93.34
2022-10-20T06:54:02.998Z,93.35
2022-10-20T06:59:06.291Z,93.38
2022-10-20T07:04:15.360Z,93.27
2022-10-20T07:09:19.535Z,93.19
2022-10-20T07:14:24.085Z,93.21
2022-10-20T07:19:27.399Z,93.43
2022-10-20T07:24:33.014Z,93.30
2022-10-20T07:29:38.036Z,92.96
2022-10-20T07:34:41.381Z,93.06
2022-10-20T07:39:44.556Z,92.83
2022-10-20T07:44:49.379Z,92.65
2022-10-20T07:49:52.556Z,92.35
2022-10-20T07:55:06.327Z,91.68
2022-10-20T08:00:19.183Z,90.77
2022-10-20T08:05:22.718Z,90.00
2022-10-20T08:10:26.078Z,88.95
2022-10-20T08:15:29.268Z,88.85
2022-10-20T08:20:35.007Z,87.89
2022-10-20T08:25:40.155Z,87.31
2022-10-20T08:30:43.411Z,86.93
2022-10-20T08:35:51.821Z,85.57
2022-10-20T08:40:54.969Z,85.77
2022-10-20T08:46:02.857Z,84.51
2022-10-20T08:51:06.220Z,84.31
2022-10-20T08:56:13.429Z,84.33
2022-10-20T09:01:29.487Z,83.98
2022-10-20T09:06:35.321Z,83.50
2022-10-20T09:11:41.410Z,82.39
2022-10-20T09:17:01.273Z,81.96
2022-10-20T09:22:07.083Z,81.64
2022-10-20T09:27:23.403Z,81.22
2022-10-20T09:32:51.173Z,80.67
2022-10-20T09:38:03.676Z,80.15
2022-10-20T09:43:12.388Z,80.41
2022-10-20T09:48:19.643Z,79.36
2022-10-20T09:53:29.708Z,79.66
2022-10-20T09:58:35.505Z,77.45
2022-10-20T10:03:47.558Z,77.89
2022-10-20T10:08:50.825Z,75.31
2022-10-20T10:13:54.667Z,75.73
2022-10-20T10:19:03.140Z,75.89
2022-10-20T10:24:06.856Z,74.72
2022-10-20T10:29:33.310Z,73.32
2022-10-20T10:35:15.179Z,74.42
2022-10-20T10:40:24.852Z,73.71
2022-10-20T10:45:52.175Z,73.47
2022-10-20T10:51:01.082Z,73.19
2022-10-20T10:56:23.075Z,72.41
2022-10-20T11:01:33.016Z,71.96
2022-10-20T11:06:58.358Z,71.38
2022-10-20T11:12:23.548Z,70.21
2022-10-20T11:18:01.213Z,68.80
2022-10-20T11:23:17.099Z,68.90
2022-10-20T11:28:44.855Z,69.03
2022-10-20T11:33:54.250Z,69.13
2022-10-20T11:38:57.568Z,68.78
2022-10-20T11:44:13.680Z,67.02
2022-10-20T11:49:18.793Z,66.73
2022-10-20T11:54:41.044Z,66.97
2022-10-20T12:00:05.935Z,66.33
2022-10-20T12:05:21.899Z,65.87
2022-10-20T12:10:29.356Z,62.85
2022-10-20T12:15:33.214Z,63.08
2022-10-20T12:20:36.383Z,63.49
2022-10-20T12:25:41.529Z,63.69
2022-10-20T12:30:46.585Z,63.99
2022-10-20T12:36:14.371Z,62.76
2022-10-20T12:41:42.222Z,61.20
2022-10-20T12:47:04.185Z,62.95
2022-10-20T12:52:09.559Z,61.25
2022-10-20T12:57:46.552Z,61.62
2022-10-20T13:02:56.742Z,63.40
2022-10-20T13:08:03.706Z,62.17
2022-10-20T13:13:13.217Z,61.16
2022-10-20T13:18:29.429Z,60.97
2022-10-20T13:23:43.828Z,62.09
2022-10-20T13:28:48.961Z,61.41
2022-10-20T13:34:05.909Z,60.79
2022-10-20T13:39:42.563Z,61.00
2022-10-20T13:44:55.745Z,61.73
2022-10-20T13:50:09.081Z,60.92
2022-10-20T13:55:51.758Z,60.43
2022-10-20T14:01:04.685Z,60.68
2022-10-20T14:06:40.459Z,60.98
2022-10-20T14:11:46.464Z,60.39
2022-10-20T14:17:04.657Z,58.46
2022-10-20T14:22:16.493Z,59.65
2022-10-20T14:27:24.606Z,60.20
2022-10-20T14:32:30.697Z,60.85
2022-10-20T14:37:40.421Z,59.76
2022-10-20T14:42:45.097Z,61.34
2022-10-20T14:47:49.084Z,60.83
2022-10-20T14:52:54.210Z,60.58
2022-10-20T14:58:02.222Z,59.22
2022-10-20T15:03:10.758Z,59.07
2022-10-20T15:08:36.083Z,60.70
2022-10-20T15:14:03.832Z,62.15
2022-10-20T15:19:36.177Z,62.21
2022-10-20T15:24:51.784Z,62.01
2022-10-20T15:30:19.832Z,61.19
2022-10-20T15:35:31.578Z,62.19
2022-10-20T15:40:37.875Z,62.50
2022-10-20T15:45:54.674Z,62.49
2022-10-20T15:51:31.902Z,62.63
2022-10-20T15:56:38.955Z,63.09
2022-10-20T16:01:48.796Z,63.38
2022-10-20T16:07:02.755Z,64.12
2022-10-20T16:12:30.947Z,64.64
2022-10-20T16:17:46.142Z,64.94
2022-10-20T16:22:52.774Z,65.48
2022-10-20T16:27:56.340Z,66.80
2022-10-20T16:33:05.097Z,67.29
2022-10-20T16:38:08.659Z,66.78
2022-10-20T16:43:51.078Z,67.42
2022-10-20T16:48:58.088Z,68.51
2022-10-20T16:54:11.142Z,69.64
2022-10-20T16:59:36.206Z,70.17
2022-10-20T17:04:47.130Z,69.44
2022-10-20T17:09:58.412Z,69.75
2022-10-20T17:15:01.917Z,69.84
2022-10-20T17:20:08.836Z,70.61
2022-10-20T17:25:14.254Z,71.14
2022-10-20T17:30:17.881Z,71.52
2022-10-20T17:35:21.538Z,72.35
2022-10-20T17:40:25.288Z,71.91
2022-10-20T17:45:41.299Z,72.01
2022-10-20T17:50:49.728Z,72.79
2022-10-20T17:56:04.803Z,72.73
2022-10-20T18:01:21.088Z,73.92
2022-10-20T18:06:31.168Z,74.50
2022-10-20T18:11:38.890Z,74.76
2022-10-20T18:16:45.561Z,74.42
2022-10-20T18:21:52.253Z,74.62
2022-10-20T18:26:58.496Z,74.06
2022-10-20T18:32:02.002Z,73.27
2022-10-20T18:37:18.587Z,73.51
2022-10-20T18:42:29.906Z,73.17
2022-10-20T18:47:42.194Z,74.44
2022-10-20T18:52:46.396Z,72.90
2022-10-20T18:57:55.679Z,73.00
2022-10-20T19:03:01.566Z,72.72
2022-10-20T19:08:07.422Z,73.46
2022-10-20T19:13:11.774Z,73.95
2022-10-20T19:18:17.231Z,74.78
2022-10-20T19:23:22.836Z,73.89
2022-10-20T19:28:42.941Z,74.77
2022-10-20T19:33:53.935Z,75.48
2022-10-20T19:38:57.636Z,75.05
2022-10-20T19:44:02.242Z,75.59
2022-10-20T19:54:11.124Z,74.72
2022-10-20T19:59:21.176Z,74.17
2022-10-20T20:04:25.430Z,74.77
2022-10-20T20:09:34.168Z,73.94
2022-10-20T20:14:37.921Z,74.07
2022-10-20T20:19:41.312Z,74.52
2022-10-20T20:24:45.888Z,75.52
2022-10-20T20:29:50.738Z,75.43
2022-10-20T20:34:54.922Z,75.01
2022-10-20T20:39:59.597Z,75.90
2022-10-20T20:45:03.306Z,76.90
2022-10-20T20:50:13.214Z,77.48
2022-10-20T20:55:16.773Z,77.98
2022-10-20T21:00:25.873Z,76.92
2022-10-20T21:05:47.889Z,78.34
2022-10-20T21:11:23.368Z,78.44
2022-10-20T21:16:36.457Z,76.72
2022-10-20T21:21:44.972Z,76.08
2022-10-20T21:26:48.966Z,77.07
2022-10-20T21:31:52.643Z,77.63
2022-10-20T21:36:56.417Z,78.67
2022-10-20T21:42:02.808Z,79.23
2022-10-20T21:47:11.629Z,79.23
2022-10-20T21:52:15.944Z,79.95
2022-10-20T21:57:19.425Z,81.32
2022-10-20T22:02:22.915Z,81.04
2022-10-20T22:07:32.134Z,81.36
2022-10-20T22:12:37.809Z,79.15
2022-10-20T22:17:42.323Z,80.00
2022-10-20T22:22:53.081Z,80.43
2022-10-20T22:27:58.946Z,80.30
2022-10-20T22:33:04.456Z,79.88
2022-10-20T22:38:15.396Z,80.13
2022-10-20T22:43:26.245Z,78.80
2022-10-20T22:48:30.973Z,79.40
2022-10-20T22:53:39.078Z,80.79
2022-10-20T22:58:49.161Z,81.85
2022-10-20T23:04:05.250Z,82.82
2022-10-20T23:09:16.866Z,83.22
2022-10-20T23:14:23.060Z,84.01
2022-10-20T23:19:29.685Z,83.21
2022-10-20T23:24:37.745Z,83.82
2022-10-20T23:29:41.651Z,83.85
2022-10-20T23:34:53.865Z,82.82
2022-10-20T23:39:57.463Z,82.72
2022-10-20T23:45:03.066Z,81.66
2022-10-20T23:50:07.871Z,82.22
2022-10-20T23:55:17.618Z,82.90
